Time;durP1;ratioP1;P1;durP2;ratioP2;P2;SDS_P1;SDS_P2;PMS_P1;PMS_P2;Temp;Humidity;BMP_temperature;BMP_pressure;BME280_temperature;BME280_humidity;BME280_pressure;Samples;Min_cycle;Max_cycle;Signal;HPM_P1;HPM_P2
2022/07/29 00:00:14;;;;;;;3.20;1.30;;;19.50;99.90;;;;;;5069612;28;20177;-70
2022/07/29 00:02:40;;;;;;;1.58;1.48;;;19.20;99.90;;;;;;5091093;28;20195;-70
2022/07/29 00:05:08;;;;;;;2.63;1.60;;;19.20;99.90;;;;;;5061398;28;20272;-73
2022/07/29 00:07:33;;;;;;;2.30;2.20;;;19.20;99.90;;;;;;5086007;28;20607;-70
2022/07/29 00:09:59;;;;;;;6.28;2.17;;;19.20;99.90;;;;;;5038604;28;20185;-70
2022/07/29 00:12:25;;;;;;;2.20;1.25;;;19.20;99.90;;;;;;5092498;28;20588;-70
2022/07/29 00:14:51;;;;;;;1.67;1.48;;;19.10;99.90;;;;;;5092649;28;20181;-70
2022/07/29 00:17:17;;;;;;;1.35;1.27;;;19.00;99.90;;;;;;5066484;28;20555;-70
2022/07/29 00:19:42;;;;;;;5.15;1.85;;;18.90;99.90;;;;;;5073707;28;20283;-70
2022/07/29 00:22:08;;;;;;;10.68;1.88;;;19.00;99.90;;;;;;5073354;28;20192;-70
2022/07/29 00:24:34;;;;;;;3.55;1.50;;;19.00;99.90;;;;;;5074411;28;20189;-70
2022/07/29 00:26:59;;;;;;;4.20;2.75;;;19.00;99.90;;;;;;5078452;28;20177;-70
2022/07/29 00:29:25;;;;;;;1.35;1.25;;;19.00;99.90;;;;;;5066372;28;20544;-70
2022/07/29 00:31:51;;;;;;;2.35;1.55;;;19.10;99.90;;;;;;5092381;28;20212;-70
2022/07/29 00:37:01;;;;;;;1.73;1.15;;;19.00;99.90;;;;;;5077733;28;20230;-70
2022/07/29 00:39:26;;;;;;;6.78;1.58;;;19.00;99.90;;;;;;5071265;28;20619;-75
2022/07/29 00:41:52;;;;;;;2.30;2.13;;;19.00;99.90;;;;;;5090556;28;20652;-70
2022/07/29 00:44:18;;;;;;;1.48;1.38;;;19.00;99.90;;;;;;5086407;28;20185;-70
2022/07/29 00:46:43;;;;;;;1.58;1.48;;;19.20;99.90;;;;;;5092080;28;20611;-69
2022/07/29 00:49:09;;;;;;;2.50;1.58;;;19.40;99.90;;;;;;5063492;28;20266;-70
2022/07/29 00:51:38;;;;;;;4.28;1.30;;;19.10;99.90;;;;;;5058816;28;20204;-70
2022/07/29 00:54:05;;;;;;;2.05;1.63;;;19.20;99.90;;;;;;5074167;28;20216;-69
2022/07/29 00:56:32;;;;;;;6.93;2.83;;;19.20;99.90;;;;;;5086629;28;20181;-70
2022/07/29 00:58:59;;;;;;;5.47;1.92;;;19.10;99.90;;;;;;5090521;28;20184;-70
2022/07/29 01:01:25;;;;;;;2.67;1.13;;;18.90;99.90;;;;;;5049253;28;20193;-70
2022/07/29 01:03:50;;;;;;;5.50;1.83;;;18.80;99.90;;;;;;5074149;28;20538;-70
2022/07/29 01:06:22;;;;;;;4.43;1.42;;;18.70;99.90;;;;;;5090190;28;20204;-70
2022/07/29 01:08:49;;;;;;;1.30;1.20;;;18.70;99.90;;;;;;5091010;28;20181;-70
2022/07/29 01:11:15;;;;;;;2.25;1.35;;;18.70;99.90;;;;;;5074187;28;20207;-70
2022/07/29 01:13:43;;;;;;;2.53;1.50;;;18.60;99.90;;;;;;5086757;28;20184;-70
2022/07/29 01:16:36;;;;;;;1.52;1.40;;;18.50;99.90;;;;;;5064932;28;20234;-70
2022/07/29 01:19:25;;;;;;;2.03;1.33;;;18.50;99.90;;;;;;5060070;28;20185;-70
2022/07/29 01:21:57;;;;;;;2.67;2.47;;;18.40;99.90;;;;;;5061421;28;20180;-70
2022/07/29 01:24:49;;;;;;;1.92;1.63;;;18.50;99.90;;;;;;5083393;28;20195;-70
2022/07/29 01:27:32;;;;;;;1.63;1.20;;;18.40;99.90;;;;;;5084636;28;20275;-71
2022/07/29 01:30:01;;;;;;;3.17;1.75;;;18.50;99.90;;;;;;5087624;28;20181;-70
2022/07/29 01:32:31;;;;;;;1.02;1.02;;;18.50;99.90;;;;;;5070673;28;20213;-70
2022/07/29 01:35:15;;;;;;;1.60;1.48;;;18.40;99.90;;;;;;5089249;28;20652;-70
2022/07/29 01:37:43;;;;;;;2.28;1.40;;;18.50;99.90;;;;;;5091997;28;20251;-70
2022/07/29 01:40:19;;;;;;;5.25;1.42;;;18.50;99.90;;;;;;5078962;28;20314;-70
2022/07/29 01:42:50;;;;;;;7.78;3.13;;;18.60;99.90;;;;;;5091831;28;20188;-70
2022/07/29 01:45:21;;;;;;;4.55;2.00;;;18.80;99.90;;;;;;5094140;28;20693;-70
2022/07/29 01:48:01;;;;;;;3.42;1.60;;;18.80;99.90;;;;;;5073689;28;20216;-70
2022/07/29 01:50:40;;;;;;;1.88;1.77;;;18.80;99.90;;;;;;5091589;28;20205;-70
2022/07/29 01:53:09;;;;;;;4.70;1.50;;;18.90;99.90;;;;;;5065488;28;20193;-69
2022/07/29 01:55:39;;;;;;;1.70;1.60;;;18.80;99.90;;;;;;5085553;28;20188;-70
2022/07/29 01:58:06;;;;;;;1.40;1.30;;;18.70;99.90;;;;;;5094593;28;20184;-69
2022/07/29 02:00:34;;;;;;;3.80;1.73;;;18.70;99.90;;;;;;5076956;28;20242;-70
2022/07/29 02:03:05;;;;;;;3.50;1.65;;;18.70;99.90;;;;;;5087136;28;20261;-70
2022/07/29 02:05:32;;;;;;;2.42;2.22;;;18.50;99.90;;;;;;5058478;28;20264;-71
2022/07/29 02:08:00;;;;;;;3.65;1.83;;;18.60;99.90;;;;;;5087045;28;20216;-70
2022/07/29 02:10:32;;;;;;;3.03;1.98;;;18.50;99.90;;;;;;5091885;28;20192;-70
2022/07/29 02:12:59;;;;;;;1.92;1.60;;;18.40;99.90;;;;;;5076470;28;20177;-70
2022/07/29 02:15:28;;;;;;;1.85;1.50;;;18.40;99.90;;;;;;5087695;28;20208;-71
2022/07/29 02:18:01;;;;;;;3.15;1.90;;;18.40;99.90;;;;;;5078646;28;20252;-71
2022/07/29 02:20:28;;;;;;;2.47;1.50;;;18.30;99.90;;;;;;5079645;28;20642;-71
2022/07/29 02:22:55;;;;;;;2.30;2.20;;;18.30;99.90;;;;;;5089541;28;20641;-70
2022/07/29 02:25:23;;;;;;;2.22;1.98;;;18.20;99.90;;;;;;5091518;28;20185;-70
2022/07/29 02:27:51;;;;;;;4.50;2.45;;;18.20;99.90;;;;;;5089713;28;20319;-71
2022/07/29 02:30:18;;;;;;;3.92;1.80;;;18.30;99.90;;;;;;5076529;28;20635;-70
2022/07/29 02:32:46;;;;;;;5.90;2.22;;;18.20;99.90;;;;;;5082293;28;20272;-71
2022/07/29 02:35:14;;;;;;;2.05;1.88;;;18.20;99.90;;;;;;5084677;28;20618;-70
2022/07/29 02:37:43;;;;;;;2.05;1.90;;;18.20;99.90;;;;;;5081424;28;20188;-70
2022/07/29 02:40:14;;;;;;;2.20;1.92;;;18.20;99.90;;;;;;5087320;28;20551;-70
2022/07/29 02:42:42;;;;;;;1.95;1.65;;;18.10;99.90;;;;;;5079304;28;20172;-71
2022/07/29 02:45:08;;;;;;;2.25;1.98;;;18.10;99.90;;;;;;5087677;28;20193;-76
2022/07/29 02:47:43;;;;;;;2.80;2.03;;;18.10;99.90;;;;;;5065600;28;20242;-70
2022/07/29 02:50:28;;;;;;;5.72;1.60;;;18.10;99.90;;;;;;5080998;28;20555;-70
2022/07/29 02:52:58;;;;;;;2.40;1.90;;;18.10;99.90;;;;;;5075469;28;20184;-70
2022/07/29 02:55:39;;;;;;;2.00;1.88;;;18.00;99.90;;;;;;5087573;28;20188;-71
2022/07/29 02:58:29;;;;;;;2.15;2.05;;;17.90;99.90;;;;;;5067310;28;20188;-72
2022/07/29 03:01:11;;;;;;;2.90;2.30;;;18.00;99.90;;;;;;5087445;28;20208;-70
2022/07/29 03:03:42;;;;;;;3.50;3.13;;;17.90;99.90;;;;;;5088767;28;20633;-70
2022/07/29 03:06:09;;;;;;;1.77;1.67;;;17.90;99.90;;;;;;5081365;28;20611;-70
2022/07/29 03:08:36;;;;;;;9.27;2.63;;;17.80;99.90;;;;;;5091290;28;20215;-70
2022/07/29 03:11:02;;;;;;;2.40;2.10;;;17.80;99.90;;;;;;5070524;28;20209;-71
2022/07/29 03:13:30;;;;;;;5.13;2.53;;;17.90;99.90;;;;;;5083596;28;20189;-70
2022/07/29 03:15:57;;;;;;;6.43;2.22;;;17.90;99.90;;;;;;5074623;28;20184;-70
2022/07/29 03:18:23;;;;;;;2.70;2.50;;;17.80;99.90;;;;;;5075077;28;20184;-70
2022/07/29 03:20:49;;;;;;;2.72;2.45;;;17.80;99.90;;;;;;5075371;28;20284;-71
2022/07/29 03:23:23;;;;;;;2.05;1.88;;;17.80;99.90;;;;;;5093827;28;20184;-71
2022/07/29 03:25:53;;;;;;;3.13;2.53;;;17.70;99.90;;;;;;5075743;28;20279;-70
2022/07/29 03:28:19;;;;;;;3.38;2.38;;;17.70;99.90;;;;;;5088984;28;20238;-70
2022/07/29 03:30:46;;;;;;;2.60;2.40;;;17.70;99.90;;;;;;5088135;28;20530;-77
2022/07/29 03:33:11;;;;;;;2.92;2.72;;;17.60;99.90;;;;;;5052252;28;20276;-70
2022/07/29 03:35:37;;;;;;;2.90;2.58;;;17.60;99.90;;;;;;5075999;28;20279;-72
2022/07/29 03:38:03;;;;;;;2.30;2.10;;;17.50;99.90;;;;;;5090368;28;20224;-70
2022/07/29 03:40:44;;;;;;;3.92;2.60;;;17.50;99.90;;;;;;5093819;28;20185;-70
2022/07/29 03:43:12;;;;;;;3.78;2.70;;;17.40;99.90;;;;;;5090484;28;20181;-71
2022/07/29 03:45:40;;;;;;;2.17;2.08;;;17.50;99.90;;;;;;5068369;28;20177;-70
2022/07/29 03:48:09;;;;;;;3.45;2.17;;;17.40;99.90;;;;;;5068686;28;20241;-70
2022/07/29 03:50:35;;;;;;;3.25;2.42;;;17.40;99.90;;;;;;5092618;28;20205;-71
2022/07/29 03:53:02;;;;;;;4.80;3.20;;;17.40;99.90;;;;;;5075542;28;20333;-71
2022/07/29 03:55:32;;;;;;;2.35;2.15;;;17.30;99.90;;;;;;5090389;28;20248;-70
2022/07/29 03:57:59;;;;;;;2.90;2.47;;;17.30;99.90;;;;;;5074718;28;20176;-73
2022/07/29 04:00:27;;;;;;;2.60;2.40;;;17.30;99.90;;;;;;5058195;28;20189;-71
2022/07/29 04:02:52;;;;;;;3.67;2.38;;;17.30;99.90;;;;;;5075209;28;20546;-70
2022/07/29 04:05:18;;;;;;;4.68;2.78;;;17.30;99.90;;;;;;5057386;28;20185;-71
2022/07/29 04:07:48;;;;;;;3.45;2.60;;;17.30;99.90;;;;;;5088036;28;20626;-70
2022/07/29 04:10:15;;;;;;;2.85;2.22;;;17.30;99.90;;;;;;5081409;28;20201;-70
2022/07/29 04:12:41;;;;;;;3.08;2.78;;;17.30;99.90;;;;;;5067535;28;20184;-70
2022/07/29 04:15:07;;;;;;;5.38;3.30;;;17.30;99.90;;;;;;5086736;28;20271;-70
2022/07/29 04:17:33;;;;;;;3.00;2.80;;;17.20;99.90;;;;;;5093027;28;20188;-70
2022/07/29 04:19:59;;;;;;;3.20;2.90;;;17.20;99.90;;;;;;5093341;28;20177;-70
2022/07/29 04:22:25;;;;;;;3.35;2.78;;;17.20;99.90;;;;;;5091989;28;20559;-70
2022/07/29 04:24:50;;;;;;;4.63;4.20;;;17.20;99.90;;;;;;5054669;28;20196;-72
2022/07/29 04:27:16;;;;;;;3.15;2.72;;;17.10;99.90;;;;;;5064716;28;20193;-70
2022/07/29 04:29:41;;;;;;;5.15;3.55;;;17.10;99.90;;;;;;5091556;28;20268;-74
2022/07/29 04:32:07;;;;;;;3.25;2.95;;;17.10;99.90;;;;;;5062086;28;20239;-70
2022/07/29 04:34:33;;;;;;;5.80;3.13;;;17.20;99.90;;;;;;5058266;28;20209;-71
2022/07/29 04:36:59;;;;;;;3.60;3.30;;;17.10;99.90;;;;;;5041068;28;20185;-75
2022/07/29 04:39:25;;;;;;;2.78;2.50;;;17.20;99.90;;;;;;5074777;28;20177;-70
2022/07/29 04:41:51;;;;;;;3.58;3.22;;;17.20;99.90;;;;;;5092442;28;20676;-70
2022/07/29 04:44:17;;;;;;;3.40;3.10;;;17.30;99.90;;;;;;5085304;28;20548;-70
2022/07/29 04:46:43;;;;;;;2.88;2.67;;;17.30;99.90;;;;;;5072869;28;20185;-70
2022/07/29 04:49:08;;;;;;;3.72;3.35;;;17.40;99.90;;;;;;5092356;28;20184;-70
2022/07/29 04:51:34;;;;;;;3.22;2.92;;;17.40;99.90;;;;;;5060177;28;20227;-70
2022/07/29 04:54:00;;;;;;;2.95;2.75;;;17.40;99.90;;;;;;5092705;28;20192;-70
2022/07/29 04:56:26;;;;;;;3.15;2.70;;;17.50;99.90;;;;;;5057111;28;20513;-71
2022/07/29 04:58:52;;;;;;;3.80;3.47;;;17.40;99.90;;;;;;5070808;28;20196;-70
2022/07/29 05:01:18;;;;;;;3.42;3.13;;;17.40;99.90;;;;;;5060992;28;20193;-71
2022/07/29 05:03:45;;;;;;;4.47;2.33;;;17.40;99.90;;;;;;5040106;28;20203;-70
2022/07/29 05:06:11;;;;;;;4.03;3.53;;;17.50;99.90;;;;;;5065468;28;20196;-70
2022/07/29 05:08:37;;;;;;;4.88;3.53;;;17.50;99.90;;;;;;5088861;28;20242;-70
2022/07/29 05:11:03;;;;;;;3.03;2.70;;;17.70;99.90;;;;;;5074345;28;20208;-70
2022/07/29 05:13:29;;;;;;;2.72;2.53;;;17.60;99.90;;;;;;5059829;28;20296;-71
2022/07/29 05:15:55;;;;;;;3.60;3.30;;;17.70;99.90;;;;;;5054912;28;20276;-70
2022/07/29 05:18:21;;;;;;;5.20;3.28;;;17.70;99.90;;;;;;5084197;28;20597;-70
2022/07/29 05:20:47;;;;;;;2.90;2.63;;;17.80;99.90;;;;;;5069753;28;20267;-70
2022/07/29 05:23:12;;;;;;;5.20;2.60;;;17.90;99.90;;;;;;5052783;28;20219;-69
2022/07/29 05:25:38;;;;;;;5.15;2.50;;;17.90;99.90;;;;;;5052416;28;20243;-69
2022/07/29 05:28:04;;;;;;;3.05;2.75;;;18.00;99.90;;;;;;5057106;28;20177;-69
2022/07/29 05:30:30;;;;;;;4.50;3.15;;;18.00;99.90;;;;;;5075332;28;20188;-70
2022/07/29 05:32:55;;;;;;;2.88;2.65;;;18.10;99.90;;;;;;5072148;28;20185;-70
2022/07/29 05:35:21;;;;;;;4.90;2.92;;;18.20;99.90;;;;;;5060978;28;20589;-70
2022/07/29 05:37:47;;;;;;;6.20;3.42;;;18.30;99.90;;;;;;5093838;28;20188;-70
2022/07/29 05:40:13;;;;;;;5.32;3.95;;;18.20;99.90;;;;;;5076686;28;20243;-70
2022/07/29 05:42:38;;;;;;;3.90;2.80;;;18.30;99.90;;;;;;5072952;28;20611;-70
2022/07/29 05:45:05;;;;;;;4.55;2.85;;;18.40;99.90;;;;;;5068822;28;20549;-70
2022/07/29 05:47:30;;;;;;;2.78;2.20;;;18.60;99.90;;;;;;5065926;28;20194;-70
2022/07/29 05:49:56;;;;;;;2.97;2.75;;;18.90;99.90;;;;;;5054074;28;20290;-70
2022/07/29 05:52:22;;;;;;;3.53;2.53;;;19.20;99.90;;;;;;5076184;28;20653;-70
2022/07/29 05:54:49;;;;;;;2.90;2.63;;;19.40;99.90;;;;;;5081276;28;20276;-78
2022/07/29 05:57:19;;;;;;;3.20;2.80;;;19.60;99.90;;;;;;5059421;28;20654;-70
2022/07/29 05:59:45;;;;;;;2.90;2.70;;;19.50;99.90;;;;;;5072717;28;20230;-71
2022/07/29 06:02:11;;;;;;;6.95;4.55;;;19.40;99.90;;;;;;5059701;28;20643;-70
2022/07/29 06:04:37;;;;;;;5.25;2.88;;;19.60;99.90;;;;;;5060302;28;20335;-70
2022/07/29 06:07:02;;;;;;;3.70;2.80;;;19.50;99.90;;;;;;5075993;28;20666;-70
2022/07/29 06:09:28;;;;;;;6.97;3.25;;;19.30;99.90;;;;;;5096061;28;20181;-77
2022/07/29 06:11:54;;;;;;;3.17;2.97;;;19.10;99.90;;;;;;5093659;28;20664;-70
2022/07/29 06:14:20;;;;;;;3.53;3.28;;;18.90;99.90;;;;;;5077423;28;20275;-70
2022/07/29 06:16:46;;;;;;;2.83;2.25;;;18.80;99.90;;;;;;5087495;28;20243;-70
2022/07/29 06:19:11;;;;;;;6.50;2.95;;;18.90;99.90;;;;;;5089681;28;20189;-70
2022/07/29 06:21:42;;;;;;;7.07;3.95;;;19.10;99.90;;;;;;5091521;28;20189;-70
2022/07/29 06:24:07;;;;;;;3.85;3.55;;;19.30;99.90;;;;;;5090321;28;20185;-70
2022/07/29 06:26:33;;;;;;;11.13;3.28;;;19.30;99.90;;;;;;5076528;28;20191;-70
2022/07/29 06:28:59;;;;;;;3.95;2.95;;;19.20;99.90;;;;;;5093269;28;20185;-71
2022/07/29 06:31:24;;;;;;;5.97;2.75;;;19.00;99.90;;;;;;5048814;28;20213;-70
2022/07/29 06:33:50;;;;;;;3.40;2.92;;;19.00;99.90;;;;;;5094340;28;20651;-70
2022/07/29 06:36:16;;;;;;;6.43;5.32;;;19.10;99.90;;;;;;5094852;28;20181;-70
2022/07/29 06:38:41;;;;;;;3.67;3.33;;;19.20;99.90;;;;;;5094869;28;20189;-70
2022/07/29 06:41:12;;;;;;;3.53;3.22;;;19.30;99.90;;;;;;5084821;28;20255;-70
2022/07/29 06:43:43;;;;;;;6.05;3.92;;;19.30;99.90;;;;;;5084841;28;20177;-70
2022/07/29 06:46:14;;;;;;;3.38;2.60;;;19.50;99.90;;;;;;5084946;28;20192;-70
2022/07/29 06:48:42;;;;;;;4.03;3.53;;;19.50;99.90;;;;;;5094027;28;20241;-70
2022/07/29 06:51:09;;;;;;;5.43;3.63;;;19.60;99.90;;;;;;5094642;28;20212;-70
2022/07/29 06:53:35;;;;;;;4.22;3.70;;;19.50;99.90;;;;;;5085015;28;20184;-70
2022/07/29 06:56:03;;;;;;;3.25;2.95;;;19.60;99.90;;;;;;5067609;28;20529;-70
2022/07/29 06:58:30;;;;;;;6.03;3.40;;;19.50;99.90;;;;;;5092067;28;20578;-71
2022/07/29 07:00:57;;;;;;;4.97;2.90;;;19.60;99.90;;;;;;5072006;28;20239;-72
2022/07/29 07:03:23;;;;;;;3.35;3.05;;;19.90;99.90;;;;;;5072278;28;20176;-71
2022/07/29 07:05:49;;;;;;;5.95;3.55;;;20.00;99.90;;;;;;5075855;28;20192;-72
2022/07/29 07:08:15;;;;;;;3.22;2.92;;;20.20;99.90;;;;;;5058800;28;20185;-72
2022/07/29 07:10:42;;;;;;;3.53;2.90;;;20.60;99.90;;;;;;5089531;28;20542;-71
2022/07/29 07:13:08;;;;;;;2.83;2.55;;;21.20;99.90;;;;;;5058705;28;20200;-72
2022/07/29 07:15:34;;;;;;;5.05;3.13;;;21.50;99.90;;;;;;5092619;28;20180;-71
2022/07/29 07:18:00;;;;;;;4.72;3.05;;;21.90;99.90;;;;;;5087003;28;20177;-73
2022/07/29 07:20:26;;;;;;;4.05;2.80;;;22.30;99.90;;;;;;5068542;28;20204;-72
2022/07/29 07:22:52;;;;;;;4.60;3.97;;;22.60;99.90;;;;;;5073219;28;20261;-70
2022/07/29 07:25:17;;;;;;;3.83;3.45;;;22.80;99.90;;;;;;5057673;28;20188;-71
2022/07/29 07:27:44;;;;;;;2.85;2.63;;;23.10;99.90;;;;;;5053880;28;20284;-70
2022/07/29 07:30:10;;;;;;;5.43;2.67;;;23.00;99.90;;;;;;5074064;28;20645;-70
2022/07/29 07:32:36;;;;;;;4.70;3.10;;;23.00;99.90;;;;;;5090568;28;20204;-70
2022/07/29 07:35:09;;;;;;;2.47;2.30;;;23.30;99.90;;;;;;5091761;28;20265;-70
2022/07/29 07:37:35;;;;;;;7.13;2.45;;;23.20;99.90;;;;;;5075829;28;20188;-72
2022/07/29 07:40:02;;;;;;;2.53;2.33;;;23.30;99.90;;;;;;5086070;28;20268;-68
2022/07/29 07:42:28;;;;;;;3.30;3.00;;;23.40;99.90;;;;;;5086973;28;20266;-69
2022/07/29 07:44:53;;;;;;;7.47;2.30;;;23.80;99.90;;;;;;5093235;28;20181;-69
2022/07/29 07:47:23;;;;;;;5.75;4.28;;;24.90;99.90;;;;;;5092743;28;20275;-70
2022/07/29 07:49:50;;;;;;;3.40;2.90;;;26.80;99.90;;;;;;5093405;28;20195;-67
2022/07/29 07:52:17;;;;;;;16.35;4.38;;;28.20;99.90;;;;;;5093010;28;20207;-68
2022/07/29 07:54:44;;;;;;;3.65;2.33;;;29.30;99.90;;;;;;5082801;28;20675;-67
2022/07/29 07:57:10;;;;;;;4.10;2.88;;;30.10;99.90;;;;;;5072269;28;20182;-68
2022/07/29 07:59:37;;;;;;;4.32;2.67;;;30.40;99.90;;;;;;5084073;28;20263;-67
2022/07/29 08:02:03;;;;;;;2.97;2.70;;;31.00;99.90;;;;;;5085898;28;20176;-68
2022/07/29 08:04:28;;;;;;;5.18;2.90;;;31.60;99.90;;;;;;5092532;28;20192;-67
2022/07/29 08:06:54;;;;;;;3.70;3.45;;;32.40;99.90;;;;;;5088771;28;20282;-73
2022/07/29 08:09:21;;;;;;;3.20;2.85;;;33.00;99.90;;;;;;5062144;28;20191;-71
2022/07/29 08:11:47;;;;;;;7.65;4.68;;;33.30;99.90;;;;;;5087628;28;20573;-68
2022/07/29 08:14:13;;;;;;;22.85;4.10;;;33.90;99.90;;;;;;5092616;28;20192;-68
2022/07/29 08:16:40;;;;;;;1.92;1.83;;;33.90;99.90;;;;;;5070758;28;20311;-67
2022/07/29 08:19:06;;;;;;;27.48;3.05;;;34.40;99.90;;;;;;5088813;28;20229;-68
2022/07/29 08:21:31;;;;;;;3.15;2.13;;;34.30;99.90;;;;;;5091046;28;20196;-70
2022/07/29 08:26:45;;;;;;;3.03;2.28;;;34.30;99.90;;;;;;5089486;28;20186;-66
2022/07/29 08:29:10;;;;;;;3.80;2.17;;;34.70;99.90;;;;;;5092463;28;20187;-67
2022/07/29 08:31:37;;;;;;;3.63;2.00;;;34.20;99.90;;;;;;5074270;28;20200;-68
2022/07/29 08:34:03;;;;;;;4.45;2.35;;;34.30;99.90;;;;;;5060647;28;20191;-67
2022/07/29 08:36:29;;;;;;;2.65;1.95;;;34.10;99.90;;;;;;5090055;28;20271;-69
2022/07/29 08:38:55;;;;;;;4.95;2.10;;;34.10;99.90;;;;;;5087543;28;20258;-67
2022/07/29 08:41:22;;;;;;;5.32;2.60;;;34.90;99.90;;;;;;5069130;28;20192;-67
2022/07/29 08:43:48;;;;;;;2.15;1.95;;;35.40;99.90;;;;;;5087741;28;20192;-67
2022/07/29 08:46:15;;;;;;;4.78;1.95;;;35.20;99.90;;;;;;5089663;28;20191;-69
2022/07/29 08:48:41;;;;;;;2.03;1.60;;;35.00;99.90;;;;;;5089468;28;20184;-69
2022/07/29 08:51:08;;;;;;;1.52;1.42;;;35.20;99.90;;;;;;5073284;28;20276;-66
2022/07/29 08:53:34;;;;;;;4.18;1.63;;;34.60;99.90;;;;;;5070959;28;20184;-68
2022/07/29 08:56:01;;;;;;;1.42;1.33;;;34.50;99.90;;;;;;5063473;28;20188;-69
2022/07/29 08:58:32;;;;;;;3.22;1.60;;;34.70;99.90;;;;;;5081850;28;20259;-69
2022/07/29 09:01:02;;;;;;;1.42;1.10;;;34.90;99.90;;;;;;5092735;28;20187;-68
2022/07/29 09:03:31;;;;;;;3.78;2.33;;;35.30;99.90;;;;;;5090254;28;20219;-68
2022/07/29 09:05:59;;;;;;;3.97;2.00;;;35.00;99.80;;;;;;5072657;28;20197;-68
2022/07/29 09:08:25;;;;;;;3.60;1.67;;;34.80;99.90;;;;;;5066221;28;20184;-69
2022/07/29 09:10:51;;;;;;;4.45;1.50;;;34.90;99.90;;;;;;5065386;28;20215;-68
2022/07/29 09:13:17;;;;;;;2.65;1.52;;;35.20;99.90;;;;;;5073973;28;20184;-67
2022/07/29 09:15:43;;;;;;;8.32;2.70;;;34.90;99.60;;;;;;5073517;28;20193;-69
2022/07/29 09:18:09;;;;;;;3.38;1.73;;;34.80;99.50;;;;;;5091196;28;20180;-69
2022/07/29 09:23:19;;;;;;;3.00;2.20;;;34.50;99.50;;;;;;5087134;28;20199;-68
2022/07/29 09:25:45;;;;;;;1.88;1.77;;;33.80;99.30;;;;;;5089636;28;20184;-66
2022/07/29 09:28:12;;;;;;;1.27;0.95;;;33.00;99.90;;;;;;5085208;28;20188;-67
2022/07/29 09:30:51;;;;;;;9.45;1.73;;;32.30;99.90;;;;;;5091219;28;20180;-69
2022/07/29 09:33:16;;;;;;;1.35;1.25;;;31.40;99.90;;;;;;5086429;28;20279;-68
2022/07/29 09:35:42;;;;;;;8.20;3.30;;;30.40;99.90;;;;;;5089022;28;20267;-66
2022/07/29 09:38:12;;;;;;;2.20;1.20;;;29.20;99.90;;;;;;5071828;28;20614;-66
2022/07/29 09:40:38;;;;;;;4.10;1.50;;;28.70;99.90;;;;;;5071079;28;20598;-66
2022/07/29 09:43:12;;;;;;;2.53;1.75;;;28.30;99.90;;;;;;5081936;28;20545;-69
2022/07/29 09:45:40;;;;;;;2.72;1.85;;;27.60;99.90;;;;;;5075813;28;20237;-67
2022/07/29 09:48:21;;;;;;;2.55;1.92;;;27.20;99.90;;;;;;5086933;28;20222;-67
2022/07/29 09:50:49;;;;;;;4.68;2.28;;;27.20;99.90;;;;;;5069355;28;20215;-67
2022/07/29 09:53:30;;;;;;;2.72;2.40;;;27.00;99.90;;;;;;5085599;28;20671;-67
2022/07/29 09:55:56;;;;;;;2.45;1.70;;;27.10;99.90;;;;;;5089654;28;20183;-69
2022/07/29 09:58:22;;;;;;;4.35;2.60;;;27.00;99.90;;;;;;5080046;28;20184;-68
2022/07/29 10:00:50;;;;;;;4.05;2.55;;;27.00;99.90;;;;;;5091687;28;20191;-68
2022/07/29 10:03:16;;;;;;;4.28;2.50;;;26.90;99.90;;;;;;5091797;28;20188;-70
2022/07/29 10:05:43;;;;;;;6.22;1.70;;;26.60;99.90;;;;;;5092545;28;20229;-74
2022/07/29 10:08:10;;;;;;;2.13;1.92;;;26.60;99.90;;;;;;5068907;28;20184;-70
2022/07/29 10:10:41;;;;;;;2.72;1.92;;;26.80;99.90;;;;;;5093347;28;20188;-70
2022/07/29 10:13:13;;;;;;;3.20;2.53;;;26.70;99.90;;;;;;5091987;28;20603;-70
2022/07/29 10:15:43;;;;;;;2.25;2.05;;;26.50;99.90;;;;;;5086598;28;20176;-70
2022/07/29 10:18:09;;;;;;;7.95;2.90;;;26.40;99.90;;;;;;5094331;28;20212;-69
2022/07/29 10:20:36;;;;;;;2.08;1.88;;;26.40;99.90;;;;;;5094738;28;20200;-66
2022/07/29 10:23:02;;;;;;;3.63;2.22;;;26.40;99.90;;;;;;5076647;28;20751;-65
2022/07/29 10:25:28;;;;;;;3.50;2.42;;;26.40;99.90;;;;;;5094961;28;20203;-66
2022/07/29 10:27:55;;;;;;;2.85;2.65;;;26.50;99.90;;;;;;5093586;28;20192;-67
2022/07/29 10:30:22;;;;;;;5.32;2.60;;;26.40;99.90;;;;;;5092762;28;20195;-71
2022/07/29 10:33:23;;;;;;;2.40;2.20;;;26.10;99.90;;;;;;5089470;28;20205;-68
2022/07/29 10:36:26;;;;;;;3.25;2.30;;;26.30;99.90;;;;;;5092212;28;20187;-67
2022/07/29 10:39:16;;;;;;;2.28;2.08;;;26.30;99.90;;;;;;5078890;28;20185;-67
2022/07/29 10:42:10;;;;;;;5.72;2.35;;;26.30;99.90;;;;;;5091750;28;20195;-69
2022/07/29 10:44:40;;;;;;;6.25;2.78;;;26.30;99.90;;;;;;5090670;28;20203;-69
2022/07/29 10:47:06;;;;;;;3.75;2.00;;;25.90;99.90;;;;;;5085915;28;20176;-69
2022/07/29 10:49:32;;;;;;;2.20;2.05;;;25.90;99.90;;;;;;5088670;28;20181;-70
2022/07/29 10:52:07;;;;;;;4.97;2.15;;;26.20;99.90;;;;;;5076003;28;20302;-69
2022/07/29 10:54:35;;;;;;;1.88;1.73;;;26.40;99.90;;;;;;5094593;28;20207;-69
2022/07/29 10:57:13;;;;;;;3.22;2.10;;;26.70;99.90;;;;;;5074530;28;20602;-68
2022/07/29 10:59:39;;;;;;;4.50;1.85;;;27.00;99.90;;;;;;5083807;28;20184;-69
2022/07/29 11:02:35;;;;;;;2.97;1.77;;;27.10;99.90;;;;;;5050944;28;20184;-71
2022/07/29 11:05:06;;;;;;;3.30;3.00;;;27.00;99.90;;;;;;5058965;28;20197;-69
2022/07/29 11:07:35;;;;;;;8.07;3.03;;;26.50;99.90;;;;;;5081202;28;21206;-77
2022/07/29 11:10:16;;;;;;;2.78;1.85;;;26.40;99.90;;;;;;5075017;28;20192;-67
2022/07/29 11:12:42;;;;;;;1.92;1.75;;;26.70;99.90;;;;;;5088909;28;20215;-68
2022/07/29 11:15:12;;;;;;;2.17;1.90;;;26.80;99.90;;;;;;5084450;28;20283;-67
2022/07/29 11:17:56;;;;;;;1.67;1.33;;;26.90;99.90;;;;;;5086922;28;20196;-67
2022/07/29 11:20:45;;;;;;;2.60;2.40;;;26.90;99.90;;;;;;5068214;28;20230;-68
2022/07/29 11:23:27;;;;;;;2.70;2.25;;;26.80;99.90;;;;;;5091696;28;20525;-67
2022/07/29 11:26:12;;;;;;;6.65;2.50;;;26.60;99.90;;;;;;5091442;28;20181;-67
2022/07/29 11:28:56;;;;;;;3.88;2.30;;;26.50;99.90;;;;;;5079945;28;20267;-67
2022/07/29 11:31:43;;;;;;;2.90;2.70;;;26.60;99.90;;;;;;5083185;28;20656;-67
2022/07/29 11:34:31;;;;;;;3.35;2.05;;;26.90;99.90;;;;;;5090198;28;20184;-67
2022/07/29 11:37:06;;;;;;;2.83;2.58;;;26.50;99.90;;;;;;5074271;28;20195;-69
2022/07/29 11:39:33;;;;;;;2.42;2.33;;;26.60;99.90;;;;;;5084547;28;20635;-71
2022/07/29 11:42:35;;;;;;;2.35;2.25;;;26.70;99.90;;;;;;5071326;28;20204;-67
2022/07/29 11:45:05;;;;;;;5.07;3.35;;;26.90;99.90;;;;;;5008686;28;20189;-67
2022/07/29 11:47:32;;;;;;;5.80;2.38;;;27.10;99.90;;;;;;5075531;28;20181;-67
2022/07/29 11:50:02;;;;;;;5.63;3.15;;;27.20;99.90;;;;;;5091061;28;20196;-67
2022/07/29 11:52:54;;;;;;;4.00;3.17;;;27.30;99.90;;;;;;5093074;28;20730;-67
2022/07/29 11:55:22;;;;;;;2.58;2.15;;;27.30;99.90;;;;;;5079465;28;20228;-67
2022/07/29 11:57:49;;;;;;;3.90;2.17;;;27.20;99.90;;;;;;5093483;28;20271;-67
2022/07/29 12:00:24;;;;;;;4.15;2.33;;;27.30;99.90;;;;;;5086245;28;20582;-68
2022/07/29 12:02:50;;;;;;;3.47;2.55;;;27.40;99.90;;;;;;5055458;28;20184;-67
2022/07/29 12:05:17;;;;;;;6.70;2.60;;;27.50;99.90;;;;;;5089693;28;20272;-67
2022/07/29 12:07:42;;;;;;;2.45;1.92;;;27.70;99.90;;;;;;5089640;28;20272;-67
2022/07/29 12:10:08;;;;;;;2.33;2.22;;;27.90;99.90;;;;;;5081994;28;20271;-67
2022/07/29 12:12:36;;;;;;;1.90;1.80;;;27.80;99.90;;;;;;5069132;28;20204;-66
2022/07/29 12:15:31;;;;;;;2.33;2.10;;;27.70;99.90;;;;;;5088208;28;20180;-70
2022/07/29 12:17:57;;;;;;;2.15;2.05;;;28.00;99.90;;;;;;5078233;28;20204;-66
2022/07/29 12:20:29;;;;;;;4.50;2.88;;;27.90;99.90;;;;;;5092212;28;20249;-68
2022/07/29 12:22:56;;;;;;;5.40;2.40;;;27.30;99.90;;;;;;5090183;28;20540;-65
2022/07/29 12:25:24;;;;;;;2.65;2.50;;;27.40;99.90;;;;;;5066446;28;20542;-65
2022/07/29 12:28:05;;;;;;;3.03;2.42;;;27.00;99.90;;;;;;5091883;28;20207;-65
2022/07/29 12:30:45;;;;;;;3.00;2.63;;;27.00;99.90;;;;;;5092930;28;20537;-65
2022/07/29 12:33:11;;;;;;;4.72;2.50;;;27.30;99.90;;;;;;5085237;28;20179;-74
2022/07/29 12:35:42;;;;;;;4.97;3.08;;;27.60;99.90;;;;;;5086093;28;20180;-66
2022/07/29 12:38:11;;;;;;;4.40;2.63;;;28.00;99.90;;;;;;5090653;28;20211;-66
2022/07/29 12:40:37;;;;;;;4.13;3.30;;;28.10;99.90;;;;;;5092302;28;20245;-67
2022/07/29 12:43:13;;;;;;;3.10;2.90;;;28.10;99.90;;;;;;5091631;28;20633;-66
2022/07/29 12:45:40;;;;;;;6.35;2.72;;;28.00;99.90;;;;;;5087306;28;20226;-67
2022/07/29 12:48:08;;;;;;;5.78;3.30;;;28.00;99.90;;;;;;5087751;28;20270;-66
2022/07/29 12:50:52;;;;;;;4.15;3.75;;;27.70;99.90;;;;;;5079770;28;20184;-67
2022/07/29 12:53:19;;;;;;;6.88;3.75;;;27.70;99.90;;;;;;5089980;28;20215;-69
2022/07/29 12:55:51;;;;;;;3.70;3.40;;;27.70;99.90;;;;;;5046051;28;20188;-66
2022/07/29 12:58:49;;;;;;;3.15;2.95;;;27.60;99.90;;;;;;5092190;28;20176;-66
2022/07/29 13:01:19;;;;;;;7.93;3.58;;;27.60;99.90;;;;;;5027175;28;20212;-66
2022/07/29 13:03:45;;;;;;;3.03;2.75;;;27.60;99.90;;;;;;5073586;28;20263;-66